sensor_id;sensor_type;location;lat;lon;timestamp;pressure;altitude;pressure_sealevel;temperature;humidity
74079;BME280;62437;51.544;-3.276;2023-04-15T00:02:13;100641.53;;;1.53;69.36
74079;BME280;62437;51.544;-3.276;2023-04-15T00:04:29;100637.96;;;2.81;66.10
74079;BME280;62437;51.544;-3.276;2023-04-15T00:06:55;100637.48;;;1.93;66.03
74079;BME280;62437;51.544;-3.276;2023-04-15T00:09:21;100641.61;;;1.07;69.01
74079;BME280;62437;51.544;-3.276;2023-04-15T00:11:47;100644.55;;;0.78;71.31
74079;BME280;62437;51.544;-3.276;2023-04-15T00:14:13;100646.17;;;1.29;69.84
74079;BME280;62437;51.544;-3.276;2023-04-15T00:16:38;100651.58;;;1.10;70.95
74079;BME280;62437;51.544;-3.276;2023-04-15T00:19:04;100652.39;;;1.34;69.39
74079;BME280;62437;51.544;-3.276;2023-04-15T00:21:30;100655.15;;;1.53;69.09
74079;BME280;62437;51.544;-3.276;2023-04-15T00:23:56;100658.56;;;1.35;70.22
74079;BME280;62437;51.544;-3.276;2023-04-15T00:26:22;100662.41;;;0.53;70.90
74079;BME280;62437;51.544;-3.276;2023-04-15T00:28:47;100661.33;;;2.14;67.37
74079;BME280;62437;51.544;-3.276;2023-04-15T00:31:13;100666.03;;;2.77;64.72
74079;BME280;62437;51.544;-3.276;2023-04-15T00:33:39;100669.02;;;2.13;67.27
74079;BME280;62437;51.544;-3.276;2023-04-15T00:36:06;100676.27;;;2.35;66.51
74079;BME280;62437;51.544;-3.276;2023-04-15T00:38:31;100680.33;;;1.78;67.80
74079;BME280;62437;51.544;-3.276;2023-04-15T00:40:56;100678.56;;;4.19;59.09
74079;BME280;62437;51.544;-3.276;2023-04-15T00:43:22;100686.87;;;1.83;66.73
74079;BME280;62437;51.544;-3.276;2023-04-15T00:45:49;100685.00;;;3.02;64.56
74079;BME280;62437;51.544;-3.276;2023-04-15T00:48:14;100691.67;;;2.54;65.35
74079;BME280;62437;51.544;-3.276;2023-04-15T00:50:39;100693.13;;;2.40;64.36
74079;BME280;62437;51.544;-3.276;2023-04-15T00:53:05;100692.68;;;3.06;62.93
74079;BME280;62437;51.544;-3.276;2023-04-15T00:55:31;100695.66;;;3.13;62.52
74079;BME280;62437;51.544;-3.276;2023-04-15T00:57:57;100698.14;;;2.98;65.68
74079;BME280;62437;51.544;-3.276;2023-04-15T01:00:23;100698.88;;;3.55;61.83
74079;BME280;62437;51.544;-3.276;2023-04-15T01:02:49;100712.27;;;2.09;66.58
74079;BME280;62437;51.544;-3.276;2023-04-15T01:05:15;100711.67;;;0.62;69.48
74079;BME280;62437;51.544;-3.276;2023-04-15T01:07:40;100720.64;;;1.24;68.95
74079;BME280;62437;51.544;-3.276;2023-04-15T01:10:07;100727.28;;;2.85;64.30
74079;BME280;62437;51.544;-3.276;2023-04-15T01:12:32;100730.56;;;1.24;67.66
74079;BME280;62437;51.544;-3.276;2023-04-15T01:14:58;100734.32;;;1.69;68.45
74079;BME280;62437;51.544;-3.276;2023-04-15T01:17:23;100734.99;;;3.28;63.55
74079;BME280;62437;51.544;-3.276;2023-04-15T01:19:49;100739.78;;;0.82;69.39
74079;BME280;62437;51.544;-3.276;2023-04-15T01:22:15;100746.61;;;2.72;63.75
74079;BME280;62437;51.544;-3.276;2023-04-15T01:24:42;100749.39;;;1.14;69.49
74079;BME280;62437;51.544;-3.276;2023-04-15T01:27:06;100756.96;;;1.45;69.24
74079;BME280;62437;51.544;-3.276;2023-04-15T01:29:36;100756.23;;;1.58;67.76
74079;BME280;62437;51.544;-3.276;2023-04-15T01:31:58;100755.08;;;1.96;67.46
74079;BME280;62437;51.544;-3.276;2023-04-15T01:34:24;100760.06;;;1.25;69.67
74079;BME280;62437;51.544;-3.276;2023-04-15T01:36:50;100764.73;;;1.40;69.12
74079;BME280;62437;51.544;-3.276;2023-04-15T01:39:16;100769.87;;;1.18;68.92
74079;BME280;62437;51.544;-3.276;2023-04-15T01:41:41;100769.83;;;2.11;68.44
74079;BME280;62437;51.544;-3.276;2023-04-15T01:44:07;100764.41;;;1.15;69.58
74079;BME280;62437;51.544;-3.276;2023-04-15T01:46:34;100759.46;;;4.08;59.63
74079;BME280;62437;51.544;-3.276;2023-04-15T01:48:59;100765.17;;;1.75;67.37
74079;BME280;62437;51.544;-3.276;2023-04-15T01:51:25;100762.37;;;1.23;67.93
74079;BME280;62437;51.544;-3.276;2023-04-15T01:53:50;100767.74;;;0.87;69.50
74079;BME280;62437;51.544;-3.276;2023-04-15T01:56:16;100775.74;;;0.21;72.06
74079;BME280;62437;51.544;-3.276;2023-04-15T01:58:42;100769.77;;;1.88;69.23
74079;BME280;62437;51.544;-3.276;2023-04-15T02:01:07;100770.09;;;1.92;65.00
74079;BME280;62437;51.544;-3.276;2023-04-15T02:03:34;100777.91;;;1.13;69.03
74079;BME280;62437;51.544;-3.276;2023-04-15T02:05:59;100780.05;;;1.09;69.43
74079;BME280;62437;51.544;-3.276;2023-04-15T02:08:25;100779.98;;;0.90;69.66
74079;BME280;62437;51.544;-3.276;2023-04-15T02:10:51;100778.63;;;1.12;69.08
74079;BME280;62437;51.544;-3.276;2023-04-15T02:13:16;100781.06;;;2.15;65.32
74079;BME280;62437;51.544;-3.276;2023-04-15T02:15:46;100782.18;;;2.38;65.50
74079;BME280;62437;51.544;-3.276;2023-04-15T02:18:08;100786.78;;;2.89;63.42
74079;BME280;62437;51.544;-3.276;2023-04-15T02:20:34;100788.00;;;1.90;68.06
74079;BME280;62437;51.544;-3.276;2023-04-15T02:23:00;100781.90;;;4.10;58.32
74079;BME280;62437;51.544;-3.276;2023-04-15T02:25:26;100783.59;;;1.97;66.32
74079;BME280;62437;51.544;-3.276;2023-04-15T02:27:52;100789.14;;;2.52;64.54
74079;BME280;62437;51.544;-3.276;2023-04-15T02:30:18;100791.44;;;2.35;65.45
74079;BME280;62437;51.544;-3.276;2023-04-15T02:32:43;100798.80;;;1.58;67.15
74079;BME280;62437;51.544;-3.276;2023-04-15T02:35:09;100804.21;;;2.63;63.23
74079;BME280;62437;51.544;-3.276;2023-04-15T02:37:36;100797.41;;;4.32;56.31
74079;BME280;62437;51.544;-3.276;2023-04-15T02:40:01;100801.70;;;4.35;57.46
74079;BME280;62437;51.544;-3.276;2023-04-15T02:42:26;100806.65;;;3.73;59.75
74079;BME280;62437;51.544;-3.276;2023-04-15T02:44:52;100805.72;;;4.15;56.78
74079;BME280;62437;51.544;-3.276;2023-04-15T02:47:18;100802.57;;;5.38;53.39
74079;BME280;62437;51.544;-3.276;2023-04-15T02:49:44;100801.79;;;5.64;51.41
74079;BME280;62437;51.544;-3.276;2023-04-15T02:52:09;100812.42;;;2.72;62.29
74079;BME280;62437;51.544;-3.276;2023-04-15T02:54:35;100816.35;;;3.27;61.33
74079;BME280;62437;51.544;-3.276;2023-04-15T02:57:01;100815.46;;;3.90;58.39
74079;BME280;62437;51.544;-3.276;2023-04-15T02:59:27;100814.13;;;4.33;55.91
74079;BME280;62437;51.544;-3.276;2023-04-15T03:01:52;100820.91;;;4.00;59.91
74079;BME280;62437;51.544;-3.276;2023-04-15T03:04:18;100826.55;;;3.78;59.76
74079;BME280;62437;51.544;-3.276;2023-04-15T03:06:44;100830.87;;;3.34;60.17
74079;BME280;62437;51.544;-3.276;2023-04-15T03:09:10;100833.80;;;1.88;67.63
74079;BME280;62437;51.544;-3.276;2023-04-15T03:11:36;100838.95;;;2.24;66.42
74079;BME280;62437;51.544;-3.276;2023-04-15T03:14:02;100847.94;;;3.28;62.74
74079;BME280;62437;51.544;-3.276;2023-04-15T03:16:28;100846.12;;;4.72;55.13
74079;BME280;62437;51.544;-3.276;2023-04-15T03:18:53;100848.76;;;3.93;59.29
74079;BME280;62437;51.544;-3.276;2023-04-15T03:21:19;100851.12;;;4.37;56.73
74079;BME280;62437;51.544;-3.276;2023-04-15T03:23:45;100852.18;;;4.64;55.63
74079;BME280;62437;51.544;-3.276;2023-04-15T03:28:36;100862.64;;;2.76;63.84
74079;BME280;62437;51.544;-3.276;2023-04-15T03:31:02;100863.31;;;4.01;57.20
74079;BME280;62437;51.544;-3.276;2023-04-15T03:33:28;100868.30;;;5.24;53.41
74079;BME280;62437;51.544;-3.276;2023-04-15T03:35:54;100875.04;;;3.32;60.82
74079;BME280;62437;51.544;-3.276;2023-04-15T03:38:19;100872.82;;;1.93;65.15
74079;BME280;62437;51.544;-3.276;2023-04-15T03:40:46;100881.84;;;1.36;64.85
74079;BME280;62437;51.544;-3.276;2023-04-15T03:43:11;100886.40;;;2.08;64.01
74079;BME280;62437;51.544;-3.276;2023-04-15T03:45:37;100895.67;;;1.26;66.98
74079;BME280;62437;51.544;-3.276;2023-04-15T03:48:03;100904.24;;;1.03;66.78
74079;BME280;62437;51.544;-3.276;2023-04-15T03:50:28;100908.10;;;0.81;68.07
74079;BME280;62437;51.544;-3.276;2023-04-15T03:52:55;100909.27;;;2.75;62.66
74079;BME280;62437;51.544;-3.276;2023-04-15T03:55:20;100906.73;;;2.41;63.12
74079;BME280;62437;51.544;-3.276;2023-04-15T03:57:46;100903.54;;;5.49;52.21
74079;BME280;62437;51.544;-3.276;2023-04-15T04:00:12;100911.04;;;2.78;60.85
74079;BME280;62437;51.544;-3.276;2023-04-15T04:02:38;100908.17;;;5.26;53.97
74079;BME280;62437;51.544;-3.276;2023-04-15T04:05:04;100909.63;;;4.71;55.45
74079;BME280;62437;51.544;-3.276;2023-04-15T04:07:29;100905.73;;;3.88;58.37
74079;BME280;62437;51.544;-3.276;2023-04-15T04:09:56;100906.77;;;2.86;60.76
74079;BME280;62437;51.544;-3.276;2023-04-15T04:12:21;100905.73;;;4.60;53.20
74079;BME280;62437;51.544;-3.276;2023-04-15T04:14:47;100905.15;;;4.39;54.25
74079;BME280;62437;51.544;-3.276;2023-04-15T04:17:13;100906.64;;;2.93;61.69
74079;BME280;62437;51.544;-3.276;2023-04-15T04:19:38;100909.19;;;3.28;60.03
74079;BME280;62437;51.544;-3.276;2023-04-15T04:22:04;100911.49;;;4.09;56.39
74079;BME280;62437;51.544;-3.276;2023-04-15T04:24:30;100916.08;;;4.43;54.25
74079;BME280;62437;51.544;-3.276;2023-04-15T04:26:55;100922.69;;;3.55;57.68
74079;BME280;62437;51.544;-3.276;2023-04-15T04:29:22;100925.48;;;2.93;62.24
74079;BME280;62437;51.544;-3.276;2023-04-15T04:31:47;100929.32;;;4.20;56.59
74079;BME280;62437;51.544;-3.276;2023-04-15T04:34:13;100929.97;;;4.52;54.09
74079;BME280;62437;51.544;-3.276;2023-04-15T04:36:39;100930.83;;;4.28;54.81
74079;BME280;62437;51.544;-3.276;2023-04-15T04:39:05;100931.68;;;4.02;56.36
74079;BME280;62437;51.544;-3.276;2023-04-15T04:41:31;100934.73;;;3.30;59.35
74079;BME280;62437;51.544;-3.276;2023-04-15T04:43:56;100941.21;;;3.12;61.46
74079;BME280;62437;51.544;-3.276;2023-04-15T04:46:22;100941.49;;;4.14;55.70
74079;BME280;62437;51.544;-3.276;2023-04-15T04:48:48;100947.06;;;3.14;59.38
74079;BME280;62437;51.544;-3.276;2023-04-15T04:51:14;100953.73;;;3.49;61.44
74079;BME280;62437;51.544;-3.276;2023-04-15T04:53:40;100954.81;;;2.59;63.41
74079;BME280;62437;51.544;-3.276;2023-04-15T04:56:06;100960.86;;;4.82;53.17
74079;BME280;62437;51.544;-3.276;2023-04-15T04:58:31;100971.51;;;4.22;57.43
74079;BME280;62437;51.544;-3.276;2023-04-15T05:00:57;100977.55;;;4.96;54.22
74079;BME280;62437;51.544;-3.276;2023-04-15T05:03:23;100981.35;;;4.16;56.91
74079;BME280;62437;51.544;-3.276;2023-04-15T05:05:49;100994.74;;;1.28;65.37
74079;BME280;62437;51.544;-3.276;2023-04-15T05:08:14;100998.09;;;4.69;53.98
74079;BME280;62437;51.544;-3.276;2023-04-15T05:10:41;101005.92;;;4.40;53.82
74079;BME280;62437;51.544;-3.276;2023-04-15T05:13:06;101009.61;;;4.33;55.88
74079;BME280;62437;51.544;-3.276;2023-04-15T05:15:32;101009.31;;;4.68;56.70
74079;BME280;62437;51.544;-3.276;2023-04-15T05:17:58;101010.90;;;4.10;57.09
74079;BME280;62437;51.544;-3.276;2023-04-15T05:20:23;101010.45;;;4.31;53.74
74079;BME280;62437;51.544;-3.276;2023-04-15T05:22:49;101018.16;;;1.40;66.66
74079;BME280;62437;51.544;-3.276;2023-04-15T05:25:15;101019.97;;;3.07;58.94
74079;BME280;62437;51.544;-3.276;2023-04-15T05:27:41;101024.19;;;2.81;62.21
74079;BME280;62437;51.544;-3.276;2023-04-15T05:30:08;101026.26;;;1.95;64.10
74079;BME280;62437;51.544;-3.276;2023-04-15T05:32:33;101024.68;;;3.12;59.01
74079;BME280;62437;51.544;-3.276;2023-04-15T05:34:59;101032.52;;;2.26;65.64
74079;BME280;62437;51.544;-3.276;2023-04-15T05:37:24;101032.91;;;1.57;66.46
74079;BME280;62437;51.544;-3.276;2023-04-15T05:39:50;101041.43;;;2.24;64.35
74079;BME280;62437;51.544;-3.276;2023-04-15T05:42:16;101041.01;;;3.47;57.41
74079;BME280;62437;51.544;-3.276;2023-04-15T05:44:42;101049.02;;;3.43;58.84
74079;BME280;62437;51.544;-3.276;2023-04-15T05:47:08;101056.02;;;2.28;63.52
74079;BME280;62437;51.544;-3.276;2023-04-15T05:49:33;101056.43;;;3.28;59.92
74079;BME280;62437;51.544;-3.276;2023-04-15T05:51:59;101066.43;;;1.60;66.32
74079;BME280;62437;51.544;-3.276;2023-04-15T05:54:25;101075.49;;;1.42;68.54
74079;BME280;62437;51.544;-3.276;2023-04-15T05:56:51;101069.92;;;2.89;60.38
74079;BME280;62437;51.544;-3.276;2023-04-15T05:59:17;101079.02;;;1.57;67.77
74079;BME280;62437;51.544;-3.276;2023-04-15T06:01:43;101083.54;;;2.34;62.63
74079;BME280;62437;51.544;-3.276;2023-04-15T06:04:08;101090.94;;;3.55;57.76
74079;BME280;62437;51.544;-3.276;2023-04-15T06:06:34;101088.15;;;2.53;64.24
74079;BME280;62437;51.544;-3.276;2023-04-15T06:09:00;101080.89;;;2.13;63.66
74079;BME280;62437;51.544;-3.276;2023-04-15T06:11:26;101088.98;;;2.39;64.61
74079;BME280;62437;51.544;-3.276;2023-04-15T06:13:52;101097.69;;;2.29;63.40
74079;BME280;62437;51.544;-3.276;2023-04-15T06:16:17;101104.72;;;2.32;66.80
74079;BME280;62437;51.544;-3.276;2023-04-15T06:18:43;101106.30;;;3.50;58.11
74079;BME280;62437;51.544;-3.276;2023-04-15T06:21:09;101109.94;;;3.31;58.00
74079;BME280;62437;51.544;-3.276;2023-04-15T06:23:35;101112.14;;;3.46;57.59
74079;BME280;62437;51.544;-3.276;2023-04-15T06:26:01;101116.25;;;3.47;57.71
74079;BME280;62437;51.544;-3.276;2023-04-15T06:28:26;101126.16;;;3.72;57.10
74079;BME280;62437;51.544;-3.276;2023-04-15T06:30:53;101130.36;;;3.50;57.80
74079;BME280;62437;51.544;-3.276;2023-04-15T06:33:18;101139.86;;;3.47;58.38
74079;BME280;62437;51.544;-3.276;2023-04-15T06:35:44;101150.81;;;3.41;59.42
74079;BME280;62437;51.544;-3.276;2023-04-15T06:38:10;101158.40;;;3.79;58.40
74079;BME280;62437;51.544;-3.276;2023-04-15T06:40:35;101162.25;;;3.88;58.73
74079;BME280;62437;51.544;-3.276;2023-04-15T06:43:01;101170.27;;;4.03;57.72
74079;BME280;62437;51.544;-3.276;2023-04-15T06:45:27;101176.65;;;3.41;59.63
74079;BME280;62437;51.544;-3.276;2023-04-15T06:47:53;101186.55;;;3.97;59.64
74079;BME280;62437;51.544;-3.276;2023-04-15T06:50:18;101194.24;;;4.00;59.89
74079;BME280;62437;51.544;-3.276;2023-04-15T06:52:45;101199.56;;;2.63;69.03
74079;BME280;62437;51.544;-3.276;2023-04-15T06:55:10;101200.86;;;2.44;70.97
74079;BME280;62437;51.544;-3.276;2023-04-15T06:57:35;101208.85;;;1.82;72.94
74079;BME280;62437;51.544;-3.276;2023-04-15T07:00:01;101210.60;;;1.26;75.51
74079;BME280;62437;51.544;-3.276;2023-04-15T07:02:27;101209.01;;;1.94;74.82
74079;BME280;62437;51.544;-3.276;2023-04-15T07:04:53;101205.17;;;2.90;70.78
74079;BME280;62437;51.544;-3.276;2023-04-15T07:07:19;101196.06;;;4.98;60.24
74079;BME280;62437;51.544;-3.276;2023-04-15T07:09:44;101202.79;;;2.58;72.08
74079;BME280;62437;51.544;-3.276;2023-04-15T07:12:10;101208.55;;;3.72;66.64
74079;BME280;62437;51.544;-3.276;2023-04-15T07:14:36;101214.79;;;2.40;75.53
74079;BME280;62437;51.544;-3.276;2023-04-15T07:17:01;101210.63;;;3.23;70.32
74079;BME280;62437;51.544;-3.276;2023-04-15T07:19:27;101210.14;;;3.77;67.56
74079;BME280;62437;51.544;-3.276;2023-04-15T07:21:53;101209.86;;;4.18;65.56
74079;BME280;62437;51.544;-3.276;2023-04-15T07:24:20;101214.10;;;4.12;68.04
74079;BME280;62437;51.544;-3.276;2023-04-15T07:26:45;101213.68;;;3.98;69.10
74079;BME280;62437;51.544;-3.276;2023-04-15T07:29:10;101220.76;;;4.02;67.93
74079;BME280;62437;51.544;-3.276;2023-04-15T07:31:37;101222.18;;;3.99;67.84
74079;BME280;62437;51.544;-3.276;2023-04-15T07:34:02;101225.53;;;4.46;64.19
74079;BME280;62437;51.544;-3.276;2023-04-15T07:36:28;101234.81;;;3.49;72.71
74079;BME280;62437;51.544;-3.276;2023-04-15T07:38:54;101232.42;;;4.24;67.92
74079;BME280;62437;51.544;-3.276;2023-04-15T07:41:19;101236.10;;;3.00;73.90
74079;BME280;62437;51.544;-3.276;2023-04-15T07:43:46;101236.18;;;4.51;66.77
74079;BME280;62437;51.544;-3.276;2023-04-15T07:46:11;101238.70;;;3.63;70.95
74079;BME280;62437;51.544;-3.276;2023-04-15T07:48:37;101239.93;;;5.35;63.93
74079;BME280;62437;51.544;-3.276;2023-04-15T07:51:02;101244.93;;;5.33;63.37
74079;BME280;62437;51.544;-3.276;2023-04-15T07:53:28;101247.23;;;5.39;62.78
74079;BME280;62437;51.544;-3.276;2023-04-15T07:55:54;101254.75;;;4.30;67.99
74079;BME280;62437;51.544;-3.276;2023-04-15T07:58:20;101259.70;;;4.44;69.92
74079;BME280;62437;51.544;-3.276;2023-04-15T08:00:46;101260.92;;;3.71;73.33
74079;BME280;62437;51.544;-3.276;2023-04-15T08:03:11;101258.78;;;4.75;67.70
74079;BME280;62437;51.544;-3.276;2023-04-15T08:05:37;101265.62;;;4.36;70.54
74079;BME280;62437;51.544;-3.276;2023-04-15T08:08:03;101265.27;;;3.82;74.69
74079;BME280;62437;51.544;-3.276;2023-04-15T08:10:29;101276.98;;;4.50;71.01
74079;BME280;62437;51.544;-3.276;2023-04-15T08:12:54;101277.46;;;5.05;69.93
74079;BME280;62437;51.544;-3.276;2023-04-15T08:15:20;101285.25;;;4.91;69.72
74079;BME280;62437;51.544;-3.276;2023-04-15T08:17:46;101284.62;;;4.37;70.91
74079;BME280;62437;51.544;-3.276;2023-04-15T08:20:12;101286.39;;;5.05;66.88
74079;BME280;62437;51.544;-3.276;2023-04-15T08:22:37;101291.06;;;6.18;63.17
74079;BME280;62437;51.544;-3.276;2023-04-15T08:25:03;101291.87;;;4.46;70.64
74079;BME280;62437;51.544;-3.276;2023-04-15T08:27:29;101286.71;;;5.72;64.95
74079;BME280;62437;51.544;-3.276;2023-04-15T08:29:54;101287.64;;;6.36;63.53
74079;BME280;62437;51.544;-3.276;2023-04-15T08:32:20;101297.83;;;5.25;66.14
74079;BME280;62437;51.544;-3.276;2023-04-15T08:34:46;101300.74;;;5.26;67.17
74079;BME280;62437;51.544;-3.276;2023-04-15T08:37:12;101302.65;;;5.73;64.78
74079;BME280;62437;51.544;-3.276;2023-04-15T08:39:37;101309.29;;;6.73;62.20
74079;BME280;62437;51.544;-3.276;2023-04-15T08:42:09;101314.68;;;4.88;66.52
74079;BME280;62437;51.544;-3.276;2023-04-15T08:44:31;101316.90;;;4.67;67.97
74079;BME280;62437;51.544;-3.276;2023-04-15T08:46:56;101318.13;;;6.11;64.58
74079;BME280;62437;51.544;-3.276;2023-04-15T08:49:21;101331.23;;;5.92;64.61
74079;BME280;62437;51.544;-3.276;2023-04-15T08:51:46;101329.47;;;6.65;65.38
74079;BME280;62437;51.544;-3.276;2023-04-15T08:54:12;101332.07;;;6.11;64.50
74079;BME280;62437;51.544;-3.276;2023-04-15T08:56:38;101337.56;;;5.89;64.41
74079;BME280;62437;51.544;-3.276;2023-04-15T08:59:03;101337.65;;;5.31;63.06
74079;BME280;62437;51.544;-3.276;2023-04-15T09:01:29;101344.90;;;4.99;66.28
74079;BME280;62437;51.544;-3.276;2023-04-15T09:03:55;101353.44;;;5.67;65.61
74079;BME280;62437;51.544;-3.276;2023-04-15T09:06:22;101357.37;;;5.20;65.10
74079;BME280;62437;51.544;-3.276;2023-04-15T09:08:46;101360.52;;;6.89;63.01
74079;BME280;62437;51.544;-3.276;2023-04-15T09:11:12;101365.26;;;5.88;62.51
74079;BME280;62437;51.544;-3.276;2023-04-15T09:13:38;101371.23;;;6.19;63.57
74079;BME280;62437;51.544;-3.276;2023-04-15T09:16:05;101370.41;;;5.59;62.08
74079;BME280;62437;51.544;-3.276;2023-04-15T09:18:30;101371.77;;;6.64;61.35
74079;BME280;62437;51.544;-3.276;2023-04-15T09:20:55;101376.59;;;7.65;60.72
74079;BME280;62437;51.544;-3.276;2023-04-15T09:23:21;101379.78;;;5.86;61.33
74079;BME280;62437;51.544;-3.276;2023-04-15T09:25:46;101387.19;;;6.12;62.77
74079;BME280;62437;51.544;-3.276;2023-04-15T09:28:12;101390.57;;;5.68;59.81
74079;BME280;62437;51.544;-3.276;2023-04-15T09:30:37;101390.42;;;5.77;60.51
74079;BME280;62437;51.544;-3.276;2023-04-15T09:33:04;101392.77;;;6.25;62.42
74079;BME280;62437;51.544;-3.276;2023-04-15T09:35:29;101396.99;;;6.15;61.93
74079;BME280;62437;51.544;-3.276;2023-04-15T09:38:01;101400.44;;;6.63;59.72
74079;BME280;62437;51.544;-3.276;2023-04-15T09:40:30;101405.89;;;6.74;58.78
74079;BME280;62437;51.544;-3.276;2023-04-15T09:42:54;101409.21;;;5.48;60.52
74079;BME280;62437;51.544;-3.276;2023-04-15T09:45:12;101406.15;;;6.08;59.05
74079;BME280;62437;51.544;-3.276;2023-04-15T09:47:37;101409.84;;;5.94;58.70
74079;BME280;62437;51.544;-3.276;2023-04-15T09:50:03;101412.90;;;6.84;56.27
74079;BME280;62437;51.544;-3.276;2023-04-15T09:52:29;101414.16;;;6.82;59.96
74079;BME280;62437;51.544;-3.276;2023-04-15T09:54:58;101411.90;;;9.28;56.90
74079;BME280;62437;51.544;-3.276;2023-04-15T09:57:20;101414.19;;;9.60;56.26
74079;BME280;62437;51.544;-3.276;2023-04-15T09:59:46;101420.31;;;7.35;54.83
74079;BME280;62437;51.544;-3.276;2023-04-15T10:02:12;101411.33;;;8.09;53.64
74079;BME280;62437;51.544;-3.276;2023-04-15T10:04:40;101408.51;;;8.77;57.69
74079;BME280;62437;51.544;-3.276;2023-04-15T10:07:04;101414.87;;;8.86;55.53
74079;BME280;62437;51.544;-3.276;2023-04-15T10:09:29;101415.06;;;8.09;56.84
74079;BME280;62437;51.544;-3.276;2023-04-15T10:11:54;101416.21;;;8.36;54.13
74079;BME280;62437;51.544;-3.276;2023-04-15T10:14:20;101423.70;;;7.11;53.45
74079;BME280;62437;51.544;-3.276;2023-04-15T10:16:46;101421.22;;;7.86;56.16
74079;BME280;62437;51.544;-3.276;2023-04-15T10:19:11;101422.17;;;7.11;54.06
74079;BME280;62437;51.544;-3.276;2023-04-15T10:21:37;101423.75;;;7.04;56.55
74079;BME280;62437;51.544;-3.276;2023-04-15T10:24:03;101421.37;;;7.33;55.62
74079;BME280;62437;51.544;-3.276;2023-04-15T10:26:28;101420.97;;;7.79;54.86
74079;BME280;62437;51.544;-3.276;2023-04-15T10:28:54;101423.19;;;8.75;52.06
74079;BME280;62437;51.544;-3.276;2023-04-15T10:31:20;101425.24;;;8.10;54.38
74079;BME280;62437;51.544;-3.276;2023-04-15T10:33:46;101433.03;;;7.87;54.09
74079;BME280;62437;51.544;-3.276;2023-04-15T10:36:11;101433.08;;;9.01;54.23
74079;BME280;62437;51.544;-3.276;2023-04-15T10:38:38;101432.29;;;9.36;56.43
74079;BME280;62437;51.544;-3.276;2023-04-15T10:41:14;101435.33;;;9.27;53.43
74079;BME280;62437;51.544;-3.276;2023-04-15T10:43:28;101432.44;;;10.30;55.35
74079;BME280;62437;51.544;-3.276;2023-04-15T10:45:53;101432.88;;;9.22;55.71
74079;BME280;62437;51.544;-3.276;2023-04-15T10:48:19;101436.22;;;8.17;55.82
74079;BME280;62437;51.544;-3.276;2023-04-15T10:53:10;101432.62;;;8.50;52.33
74079;BME280;62437;51.544;-3.276;2023-04-15T10:55:36;101430.94;;;9.07;50.09
74079;BME280;62437;51.544;-3.276;2023-04-15T10:58:02;101434.96;;;9.94;57.07
74079;BME280;62437;51.544;-3.276;2023-04-15T11:00:29;101440.18;;;8.40;53.32
74079;BME280;62437;51.544;-3.276;2023-04-15T11:02:55;101451.60;;;8.06;50.07
74079;BME280;62437;51.544;-3.276;2023-04-15T11:05:20;101444.12;;;8.00;50.38
74079;BME280;62437;51.544;-3.276;2023-04-15T11:07:51;101445.88;;;8.41;55.60
74079;BME280;62437;51.544;-3.276;2023-04-15T11:12:36;101444.87;;;9.82;56.74
74079;BME280;62437;51.544;-3.276;2023-04-15T11:17:27;101443.97;;;8.56;46.81
74079;BME280;62437;51.544;-3.276;2023-04-15T11:19:53;101449.74;;;9.56;49.16
74079;BME280;62437;51.544;-3.276;2023-04-15T11:22:18;101454.78;;;8.69;46.54
74079;BME280;62437;51.544;-3.276;2023-04-15T11:24:47;101456.96;;;8.18;49.58
74079;BME280;62437;51.544;-3.276;2023-04-15T11:27:10;101458.39;;;8.85;49.35
74079;BME280;62437;51.544;-3.276;2023-04-15T11:29:35;101467.57;;;7.88;48.74
74079;BME280;62437;51.544;-3.276;2023-04-15T11:32:07;101471.85;;;7.88;46.31
74079;BME280;62437;51.544;-3.276;2023-04-15T11:34:27;101472.15;;;8.74;46.38
74079;BME280;62437;51.544;-3.276;2023-04-15T11:36:57;101467.62;;;10.61;49.95
74079;BME280;62437;51.544;-3.276;2023-04-15T11:39:22;101461.53;;;9.99;49.01
74079;BME280;62437;51.544;-3.276;2023-04-15T11:41:44;101467.64;;;9.05;46.02
74079;BME280;62437;51.544;-3.276;2023-04-15T11:44:15;101471.94;;;9.30;49.99
74079;BME280;62437;51.544;-3.276;2023-04-15T11:46:35;101470.62;;;9.50;48.15
74079;BME280;62437;51.544;-3.276;2023-04-15T11:49:01;101474.08;;;9.80;53.95
74079;BME280;62437;51.544;-3.276;2023-04-15T11:51:31;101484.12;;;9.24;43.64
74079;BME280;62437;51.544;-3.276;2023-04-15T11:53:52;101483.76;;;8.80;45.08
74079;BME280;62437;51.544;-3.276;2023-04-15T11:56:19;101481.86;;;8.94;44.14
74079;BME280;62437;51.544;-3.276;2023-04-15T11:58:43;101484.67;;;8.95;41.59
74079;BME280;62437;51.544;-3.276;2023-04-15T12:01:09;101486.90;;;9.02;45.62
74079;BME280;62437;51.544;-3.276;2023-04-15T12:03:38;101491.88;;;10.13;50.06
74079;BME280;62437;51.544;-3.276;2023-04-15T12:06:05;101489.08;;;10.08;52.31
74079;BME280;62437;51.544;-3.276;2023-04-15T12:08:33;101486.92;;;9.54;52.28
74079;BME280;62437;51.544;-3.276;2023-04-15T12:10:58;101487.63;;;11.01;58.35
74079;BME280;62437;51.544;-3.276;2023-04-15T12:13:17;101490.47;;;10.83;59.02
74079;BME280;62437;51.544;-3.276;2023-04-15T12:15:43;101498.53;;;10.03;59.66
74079;BME280;62437;51.544;-3.276;2023-04-15T12:18:16;101499.96;;;10.25;53.28
74079;BME280;62437;51.544;-3.276;2023-04-15T12:20:42;101498.78;;;10.64;58.68
74079;BME280;62437;51.544;-3.276;2023-04-15T12:23:05;101499.04;;;9.65;54.85
74079;BME280;62437;51.544;-3.276;2023-04-15T12:25:33;101504.84;;;9.75;54.09
74079;BME280;62437;51.544;-3.276;2023-04-15T12:27:51;101499.59;;;11.17;54.40
74079;BME280;62437;51.544;-3.276;2023-04-15T12:30:17;101496.31;;;11.95;56.34
74079;BME280;62437;51.544;-3.276;2023-04-15T12:32:42;101504.47;;;10.02;53.99
74079;BME280;62437;51.544;-3.276;2023-04-15T12:35:08;101500.62;;;10.64;52.27
74079;BME280;62437;51.544;-3.276;2023-04-15T12:37:34;101506.08;;;9.92;53.58
74079;BME280;62437;51.544;-3.276;2023-04-15T12:39:59;101504.62;;;10.65;54.81
74079;BME280;62437;51.544;-3.276;2023-04-15T12:42:25;101511.35;;;10.05;54.51
74079;BME280;62437;51.544;-3.276;2023-04-15T12:44:50;101511.87;;;10.05;53.13
74079;BME280;62437;51.544;-3.276;2023-04-15T12:47:16;101513.84;;;10.25;52.18
74079;BME280;62437;51.544;-3.276;2023-04-15T12:49:42;101519.16;;;9.84;52.47
74079;BME280;62437;51.544;-3.276;2023-04-15T12:52:07;101526.28;;;10.51;56.55